Terminal Aerodrome Forecast
Issued by NWS

Home | Current Version | Previous Version | Text Only | Print | Product List | Glossary On
Versions: 1 2 3 4 5 6 7 8 9 10 11 12 13 14 15 16 17
557
FTUS46 KSGX 290558 CCA
TAFSNA
TAF COR
KSNA 290558Z 2906/3006 12005KT P6SM OVC013
     FM291600 VRB04KT P6SM SCT015
     FM291800 21008KT P6SM FEW015
     FM300200 VRB04KT P6SM SCT013
     FM300500 VRB04KT P6SM OVC013=

USA.gov is the U.S. government's official web portal to all federal, state and local government web resources and services.